createdAt,value
2019-03-25T00:01:13.209Z,4.07
2019-03-25T00:03:43.748Z,3.92
2019-03-25T00:06:14.052Z,3.76
2019-03-25T00:08:45.726Z,3.55
2019-03-25T00:11:15.005Z,3.47
2019-03-25T00:13:44.288Z,3.60
2019-03-25T00:16:13.547Z,3.92
2019-03-25T00:18:42.830Z,3.88
2019-03-25T00:21:12.113Z,3.81
2019-03-25T00:23:41.338Z,3.60
2019-03-25T00:26:10.594Z,3.78
2019-03-25T00:28:39.808Z,3.83
2019-03-25T00:31:09.071Z,3.98
2019-03-25T00:33:38.228Z,3.87
2019-03-25T00:36:07.590Z,3.69
2019-03-25T00:38:36.747Z,3.61
2019-03-25T00:41:05.950Z,3.50
2019-03-25T00:43:35.173Z,3.51
2019-03-25T00:46:04.408Z,3.48
2019-03-25T00:48:33.614Z,3.52
2019-03-25T00:51:02.805Z,3.43
2019-03-25T00:53:32.048Z,3.46
2019-03-25T00:56:01.258Z,3.67
2019-03-25T00:58:30.487Z,3.49
2019-03-25T01:00:59.685Z,3.47
2019-03-25T01:03:29.212Z,3.93
2019-03-25T01:05:58.453Z,4.15
2019-03-25T01:08:27.658Z,4.43
2019-03-25T01:10:56.852Z,4.49
2019-03-25T01:13:26.169Z,4.66
2019-03-25T01:15:55.381Z,4.84
2019-03-25T01:18:24.584Z,4.87
2019-03-25T01:20:53.809Z,4.94
2019-03-25T01:23:23.011Z,4.98
2019-03-25T01:25:52.231Z,5.01
2019-03-25T01:28:21.476Z,5.01
2019-03-25T01:30:50.749Z,5.06
2019-03-25T01:33:20.299Z,5.05
2019-03-25T01:35:49.536Z,5.13
2019-03-25T01:38:18.762Z,5.12
2019-03-25T01:40:48.265Z,5.16
2019-03-25T01:43:17.469Z,5.29
2019-03-25T01:45:46.713Z,5.30
2019-03-25T01:48:15.909Z,5.31
2019-03-25T01:50:45.117Z,5.32
2019-03-25T01:53:14.340Z,5.42
2019-03-25T01:55:43.572Z,5.51
2019-03-25T01:58:12.771Z,5.57
2019-03-25T02:00:42.268Z,5.57
2019-03-25T02:03:11.498Z,5.66
2019-03-25T02:05:40.692Z,5.66
2019-03-25T02:08:09.901Z,5.62
2019-03-25T02:10:39.759Z,5.64
2019-03-25T02:13:09.660Z,5.68
2019-03-25T02:15:38.862Z,5.65
2019-03-25T02:18:08.322Z,5.64
2019-03-25T02:20:37.554Z,5.64
2019-03-25T02:23:10.663Z,5.66
2019-03-25T02:25:39.275Z,5.69
2019-03-25T02:28:08.537Z,5.70
2019-03-25T02:30:37.759Z,5.63
2019-03-25T02:33:06.957Z,5.60
2019-03-25T02:35:38.496Z,5.62
2019-03-25T02:38:07.757Z,5.58
2019-03-25T02:40:37.015Z,5.37
2019-03-25T02:43:06.295Z,5.11
2019-03-25T02:45:35.514Z,4.81
2019-03-25T02:48:05.122Z,4.85
2019-03-25T02:50:35.549Z,4.77
2019-03-25T02:53:05.220Z,4.83
2019-03-25T02:55:42.020Z,4.85
2019-03-25T02:58:06.695Z,4.76
2019-03-25T03:00:37.891Z,4.79
2019-03-25T03:03:08.134Z,4.83
2019-03-25T03:05:38.398Z,4.63
2019-03-25T03:08:07.785Z,4.70
2019-03-25T03:10:37.239Z,4.75
2019-03-25T03:13:06.802Z,4.78
2019-03-25T03:15:36.016Z,4.85
2019-03-25T03:18:05.712Z,5.00
2019-03-25T03:20:34.913Z,5.07
2019-03-25T03:23:04.151Z,5.05
2019-03-25T03:25:33.381Z,5.10
2019-03-25T03:28:02.696Z,5.29
2019-03-25T03:30:32.203Z,5.25
2019-03-25T03:33:01.441Z,5.33
2019-03-25T03:35:30.646Z,5.43
2019-03-25T03:37:59.854Z,5.46
2019-03-25T03:40:29.069Z,5.55
2019-03-25T03:42:58.285Z,5.53
2019-03-25T03:45:27.511Z,5.51
2019-03-25T03:47:56.996Z,5.56
2019-03-25T03:50:28.624Z,5.53
2019-03-25T03:52:58.837Z,5.48
2019-03-25T03:55:30.029Z,5.50
2019-03-25T03:58:00.000Z,5.43
2019-03-25T04:00:31.724Z,5.28
2019-03-25T04:03:01.914Z,5.11
2019-03-25T04:05:31.394Z,4.94
2019-03-25T04:08:01.128Z,4.90
2019-03-25T04:10:30.733Z,4.84
2019-03-25T04:13:00.367Z,4.86
2019-03-25T04:15:33.961Z,4.81
2019-03-25T04:18:03.189Z,4.75
2019-03-25T04:20:32.962Z,4.78
2019-03-25T04:23:02.310Z,4.74
2019-03-25T04:25:31.545Z,4.70
2019-03-25T04:28:00.759Z,4.58
2019-03-25T04:30:29.977Z,4.55
2019-03-25T04:32:59.216Z,4.45
2019-03-25T04:35:28.770Z,4.46
2019-03-25T04:37:57.990Z,4.42
2019-03-25T04:40:27.222Z,4.42
2019-03-25T04:42:56.469Z,4.31
2019-03-25T04:45:25.978Z,4.20
2019-03-25T04:47:55.203Z,4.12
2019-03-25T04:50:24.421Z,4.24
2019-03-25T04:52:53.655Z,4.26
2019-03-25T04:55:24.970Z,4.27
2019-03-25T04:57:54.205Z,4.19
2019-03-25T05:00:39.251Z,4.16
2019-03-25T05:03:08.477Z,4.13
2019-03-25T05:05:38.284Z,4.02
2019-03-25T05:08:07.520Z,4.11
2019-03-25T05:10:36.813Z,4.21
2019-03-25T05:13:06.796Z,4.25
2019-03-25T05:15:36.354Z,4.31
2019-03-25T05:18:05.877Z,4.34
2019-03-25T05:20:35.152Z,4.37
2019-03-25T05:23:05.017Z,4.31
2019-03-25T05:25:35.005Z,4.32
2019-03-25T05:28:05.031Z,4.32
2019-03-25T05:30:34.646Z,4.32
2019-03-25T05:33:04.517Z,4.31
2019-03-25T05:35:34.033Z,4.31
2019-03-25T05:38:03.658Z,4.30
2019-03-25T05:40:32.869Z,4.26
2019-03-25T05:43:02.072Z,4.31
2019-03-25T05:45:31.293Z,4.29
2019-03-25T05:48:00.500Z,4.31
2019-03-25T05:50:30.056Z,4.32
2019-03-25T05:52:59.385Z,4.33
2019-03-25T05:55:29.264Z,4.29
2019-03-25T05:57:58.778Z,4.32
2019-03-25T06:00:31.587Z,4.32
2019-03-25T06:03:01.198Z,4.34
2019-03-25T06:05:30.413Z,4.40
2019-03-25T06:07:59.621Z,4.37
2019-03-25T06:10:28.852Z,4.44
2019-03-25T06:12:58.080Z,4.47
2019-03-25T06:15:27.305Z,4.56
2019-03-25T06:17:57.515Z,4.63
2019-03-25T06:20:28.248Z,4.62
2019-03-25T06:22:57.923Z,4.62
2019-03-25T06:25:27.757Z,4.66
2019-03-25T06:27:58.633Z,4.65
2019-03-25T06:30:28.516Z,4.67
2019-03-25T06:32:58.401Z,4.68
2019-03-25T06:35:27.608Z,4.78
2019-03-25T06:37:56.855Z,4.81
2019-03-25T06:40:26.789Z,4.87
2019-03-25T06:42:57.024Z,4.96
2019-03-25T06:45:26.877Z,4.95
2019-03-25T06:47:56.375Z,4.85
2019-03-25T06:50:26.498Z,4.89
2019-03-25T06:52:56.778Z,5.02
2019-03-25T06:55:26.351Z,5.11
2019-03-25T06:57:55.538Z,5.18
2019-03-25T07:00:24.909Z,5.16
2019-03-25T07:02:54.132Z,5.16
2019-03-25T07:05:23.343Z,5.20
2019-03-25T07:07:52.930Z,5.13
2019-03-25T07:10:35.609Z,5.23
2019-03-25T07:13:08.980Z,5.38
2019-03-25T07:15:38.199Z,5.44
2019-03-25T07:18:08.448Z,5.65
2019-03-25T07:20:39.725Z,5.77
2019-03-25T07:23:09.208Z,5.86
2019-03-25T07:25:41.089Z,5.84
2019-03-25T07:28:12.667Z,6.11
2019-03-25T07:30:43.649Z,5.99
2019-03-25T07:33:12.849Z,5.77
2019-03-25T07:35:42.076Z,5.64
2019-03-25T07:38:11.329Z,5.54
2019-03-25T07:40:40.524Z,5.46
2019-03-25T07:43:09.757Z,5.58
2019-03-25T07:45:39.272Z,5.82
2019-03-25T07:48:08.467Z,5.91
2019-03-25T07:50:37.704Z,6.06
2019-03-25T07:53:06.991Z,6.34
2019-03-25T07:55:36.192Z,6.38
2019-03-25T07:58:05.541Z,6.09
2019-03-25T08:00:34.724Z,6.14
2019-03-25T08:03:04.039Z,6.25
2019-03-25T08:05:33.297Z,6.31
2019-03-25T08:08:02.464Z,5.90
2019-03-25T08:10:34.400Z,5.83
2019-03-25T08:13:04.891Z,6.12
2019-03-25T08:15:34.715Z,6.02
2019-03-25T08:18:04.240Z,6.01
2019-03-25T08:20:33.436Z,6.04
2019-03-25T08:23:02.640Z,6.04
2019-03-25T08:25:31.954Z,6.01
2019-03-25T08:28:01.329Z,6.06
2019-03-25T08:30:30.849Z,6.02
2019-03-25T08:33:00.072Z,5.69
2019-03-25T08:35:29.275Z,5.40
2019-03-25T08:37:58.587Z,5.27
2019-03-25T08:40:28.227Z,5.20
2019-03-25T08:42:57.415Z,5.20
2019-03-25T08:45:26.846Z,5.19
2019-03-25T08:47:56.414Z,5.27
2019-03-25T08:50:25.629Z,5.36
2019-03-25T08:52:54.815Z,5.56
2019-03-25T08:55:26.123Z,5.84
2019-03-25T08:57:55.334Z,6.13
2019-03-25T09:00:24.611Z,6.52
2019-03-25T09:02:53.835Z,6.59
2019-03-25T09:05:23.025Z,6.33
2019-03-25T09:07:52.214Z,6.24
2019-03-25T09:10:21.586Z,6.46
2019-03-25T09:12:50.791Z,6.42
2019-03-25T09:15:20.374Z,6.70
2019-03-25T09:17:50.189Z,6.29
2019-03-25T09:20:19.462Z,6.26
2019-03-25T09:22:49.314Z,6.35
2019-03-25T09:25:18.758Z,6.38
2019-03-25T09:27:47.954Z,6.29
2019-03-25T09:30:49.403Z,6.37
2019-03-25T09:33:18.603Z,6.20
2019-03-25T09:35:48.021Z,5.75
2019-03-25T09:38:17.409Z,5.81
2019-03-25T09:40:46.607Z,5.78
2019-03-25T09:43:15.821Z,5.76
2019-03-25T09:45:45.152Z,5.83
2019-03-25T09:48:14.664Z,5.78
2019-03-25T09:50:44.276Z,5.81
2019-03-25T09:53:13.493Z,5.90
2019-03-25T09:55:42.721Z,6.20
2019-03-25T09:58:36.321Z,6.54
2019-03-25T10:01:01.871Z,6.65
2019-03-25T10:03:31.101Z,6.66
2019-03-25T10:06:00.961Z,6.80
2019-03-25T10:08:30.234Z,6.82
2019-03-25T10:10:59.524Z,6.25
2019-03-25T10:13:28.754Z,6.16
2019-03-25T10:15:57.971Z,5.85
2019-03-25T10:18:27.177Z,5.40
2019-03-25T10:20:56.399Z,5.67
2019-03-25T10:23:25.665Z,5.93
2019-03-25T10:25:54.934Z,5.69
2019-03-25T10:28:24.249Z,5.67
2019-03-25T10:30:53.823Z,5.64
2019-03-25T10:33:23.030Z,5.74
2019-03-25T10:35:52.355Z,5.79
2019-03-25T10:38:21.949Z,5.92
2019-03-25T10:40:51.158Z,6.07
2019-03-25T10:43:20.370Z,6.21
2019-03-25T10:45:49.653Z,6.32
2019-03-25T10:48:18.848Z,6.86
2019-03-25T10:50:48.072Z,7.08
2019-03-25T10:53:17.273Z,7.03
2019-03-25T10:55:46.820Z,7.02
2019-03-25T10:58:16.017Z,7.33
2019-03-25T11:00:45.312Z,6.93
2019-03-25T11:03:14.600Z,6.03
2019-03-25T11:05:43.802Z,5.66
2019-03-25T11:08:13.019Z,5.78
2019-03-25T11:10:42.295Z,5.57
2019-03-25T11:13:13.452Z,6.16
2019-03-25T11:15:42.661Z,6.39
2019-03-25T11:18:11.881Z,6.47
2019-03-25T11:20:41.124Z,7.69
2019-03-25T11:23:10.328Z,7.67
2019-03-25T11:25:39.534Z,8.14
2019-03-25T11:28:08.754Z,8.48
2019-03-25T11:30:55.109Z,8.91
2019-03-25T11:33:24.494Z,9.51
2019-03-25T11:35:54.083Z,9.11
2019-03-25T11:38:23.461Z,8.87
2019-03-25T11:40:53.228Z,9.56
2019-03-25T11:43:22.597Z,9.89
2019-03-25T11:45:52.350Z,9.19
2019-03-25T11:48:21.750Z,8.87
2019-03-25T11:50:51.021Z,8.91
2019-03-25T11:53:20.249Z,8.75
2019-03-25T11:55:49.563Z,8.40
2019-03-25T11:58:19.117Z,7.61
2019-03-25T12:00:48.315Z,7.37
2019-03-25T12:03:17.550Z,6.95
2019-03-25T12:05:46.750Z,7.21
2019-03-25T12:08:16.050Z,7.78
2019-03-25T12:10:45.253Z,8.13
2019-03-25T12:13:14.453Z,9.14
2019-03-25T12:15:43.743Z,10.67
2019-03-25T12:18:13.311Z,10.85
2019-03-25T12:20:42.818Z,10.07
2019-03-25T12:23:12.039Z,9.13
2019-03-25T12:25:41.234Z,9.33
2019-03-25T12:28:10.433Z,8.36
2019-03-25T12:30:39.657Z,8.39
2019-03-25T12:33:08.933Z,8.54
2019-03-25T12:35:38.154Z,8.31
2019-03-25T12:38:07.360Z,9.83
2019-03-25T12:40:36.647Z,11.43
2019-03-25T12:43:05.891Z,10.66
2019-03-25T12:45:35.165Z,9.85
2019-03-25T12:48:04.453Z,10.08
2019-03-25T12:50:34.572Z,10.95
2019-03-25T12:53:03.887Z,10.53
2019-03-25T12:55:33.138Z,11.04
2019-03-25T12:58:02.366Z,9.89
2019-03-25T13:00:42.841Z,8.83
2019-03-25T13:03:14.449Z,7.21
2019-03-25T13:05:43.844Z,5.98
2019-03-25T13:08:13.535Z,6.13
2019-03-25T13:10:42.752Z,6.28
2019-03-25T13:13:11.956Z,6.67
2019-03-25T13:15:41.513Z,8.17
2019-03-25T13:18:10.820Z,9.55
2019-03-25T13:20:40.136Z,9.61
2019-03-25T13:23:09.331Z,9.22
2019-03-25T13:25:40.094Z,8.67
2019-03-25T13:28:09.318Z,8.04
2019-03-25T13:30:38.522Z,7.57
2019-03-25T13:33:08.111Z,8.61
2019-03-25T13:35:37.645Z,9.76
2019-03-25T13:38:06.886Z,11.00
2019-03-25T13:40:36.130Z,11.42
2019-03-25T13:43:05.336Z,11.37
2019-03-25T13:45:36.203Z,11.20
2019-03-25T13:48:05.505Z,10.54
2019-03-25T13:50:34.706Z,10.89
2019-03-25T13:53:03.990Z,12.04
2019-03-25T13:55:33.588Z,11.44
2019-03-25T13:58:02.787Z,10.55
2019-03-25T14:00:40.608Z,9.65
2019-03-25T14:03:09.858Z,8.52
2019-03-25T14:05:39.453Z,8.24
2019-03-25T14:08:09.028Z,7.95
2019-03-25T14:10:38.608Z,7.75
2019-03-25T14:13:07.972Z,7.61
2019-03-25T14:15:37.280Z,7.32
2019-03-25T14:18:06.955Z,7.33
2019-03-25T14:20:36.218Z,7.48
2019-03-25T14:23:06.165Z,7.82
2019-03-25T14:25:35.384Z,8.16
2019-03-25T14:28:04.757Z,8.64
2019-03-25T14:30:33.976Z,8.72
2019-03-25T14:33:03.564Z,8.36
2019-03-25T14:35:32.795Z,7.88
2019-03-25T14:38:02.891Z,6.24
2019-03-25T14:40:33.734Z,6.13
2019-03-25T14:43:03.019Z,6.36
2019-03-25T14:45:32.236Z,6.61
2019-03-25T14:48:01.435Z,6.58
2019-03-25T14:50:31.558Z,6.48
2019-03-25T14:53:01.626Z,6.39
2019-03-25T14:55:30.844Z,6.37
2019-03-25T14:58:03.485Z,6.32
2019-03-25T15:00:32.729Z,6.35
2019-03-25T15:03:01.926Z,6.41
2019-03-25T15:05:31.148Z,6.54
2019-03-25T15:08:00.380Z,6.76
2019-03-25T15:10:29.625Z,7.35
2019-03-25T15:13:01.229Z,7.90
2019-03-25T15:15:30.508Z,8.32
2019-03-25T15:17:59.730Z,7.94
2019-03-25T15:20:28.963Z,7.71
2019-03-25T15:22:58.499Z,7.53
2019-03-25T15:25:27.798Z,7.42
2019-03-25T15:27:57.080Z,7.44
2019-03-25T15:30:35.467Z,7.41
2019-03-25T15:32:57.231Z,7.10
2019-03-25T15:35:26.623Z,6.96
2019-03-25T15:37:55.796Z,6.90
2019-03-25T15:40:25.138Z,7.12
2019-03-25T15:42:54.702Z,8.73
2019-03-25T15:45:23.987Z,7.72
2019-03-25T15:47:53.220Z,7.51
2019-03-25T15:50:22.572Z,8.04
2019-03-25T15:52:51.842Z,9.67
2019-03-25T15:55:21.387Z,9.96
2019-03-25T15:57:50.691Z,8.05
2019-03-25T16:00:20.733Z,7.65
2019-03-25T16:02:49.940Z,8.12
2019-03-25T16:05:19.169Z,7.10
2019-03-25T16:07:48.486Z,7.05
2019-03-25T16:10:18.329Z,6.88
2019-03-25T16:12:48.040Z,6.71
2019-03-25T16:15:37.634Z,6.64
2019-03-25T16:18:07.070Z,6.66
2019-03-25T16:20:36.460Z,6.62
2019-03-25T16:23:05.753Z,6.59
2019-03-25T16:25:34.950Z,6.58
2019-03-25T16:28:04.185Z,6.57
2019-03-25T16:30:33.383Z,6.61
2019-03-25T16:33:02.579Z,6.52
2019-03-25T16:35:31.797Z,6.56
2019-03-25T16:38:01.281Z,6.56
2019-03-25T16:40:30.504Z,6.45
2019-03-25T16:42:59.702Z,6.47
2019-03-25T16:45:28.891Z,6.46
2019-03-25T16:47:58.399Z,6.45
2019-03-25T16:50:27.597Z,6.50
2019-03-25T16:52:56.834Z,6.77
2019-03-25T16:55:26.135Z,6.95
2019-03-25T16:57:55.335Z,7.63
2019-03-25T17:00:27.584Z,7.25
2019-03-25T17:02:55.549Z,6.88
2019-03-25T17:05:24.741Z,6.79
2019-03-25T17:07:54.474Z,6.71
2019-03-25T17:10:24.063Z,6.80
2019-03-25T17:12:53.291Z,6.80
2019-03-25T17:15:22.487Z,6.76
2019-03-25T17:17:51.691Z,6.72
2019-03-25T17:20:20.901Z,6.67
2019-03-25T17:22:50.157Z,6.66
2019-03-25T17:25:19.731Z,6.57
2019-03-25T17:27:48.929Z,6.50
2019-03-25T17:30:18.870Z,6.46
2019-03-25T17:32:48.064Z,6.42
2019-03-25T17:35:17.275Z,6.39
2019-03-25T17:37:46.501Z,6.33
2019-03-25T17:40:16.001Z,6.20
2019-03-25T17:42:45.201Z,6.18
2019-03-25T17:45:16.340Z,6.24
2019-03-25T17:47:45.520Z,6.22
2019-03-25T17:50:14.992Z,6.31
2019-03-25T17:52:44.189Z,6.35
2019-03-25T17:55:13.569Z,6.44
2019-03-25T17:57:51.056Z,6.43
2019-03-25T18:00:43.947Z,6.39
2019-03-25T18:03:15.277Z,6.46
2019-03-25T18:05:44.075Z,6.47
2019-03-25T18:08:13.299Z,6.48
2019-03-25T18:10:42.510Z,6.54
2019-03-25T18:13:21.934Z,6.57
2019-03-25T18:15:42.662Z,6.46
2019-03-25T18:18:11.851Z,6.40
2019-03-25T18:20:41.097Z,6.37
2019-03-25T18:23:10.308Z,6.42
2019-03-25T18:25:39.532Z,6.43
2019-03-25T18:28:08.744Z,6.44
2019-03-25T18:30:38.299Z,6.41
2019-03-25T18:33:07.704Z,6.40
2019-03-25T18:35:36.902Z,6.39
2019-03-25T18:38:06.133Z,6.36
2019-03-25T18:40:35.324Z,6.31
2019-03-25T18:43:04.594Z,6.31
2019-03-25T18:45:33.813Z,6.35
2019-03-25T18:48:03.004Z,6.29
2019-03-25T18:50:32.199Z,6.33
2019-03-25T18:53:01.503Z,6.38
2019-03-25T18:55:30.699Z,6.47
2019-03-25T18:57:59.930Z,6.54
2019-03-25T19:00:33.418Z,6.62
2019-03-25T19:03:03.000Z,6.67
2019-03-25T19:05:32.208Z,6.72
2019-03-25T19:08:03.864Z,6.73
2019-03-25T19:10:33.866Z,6.75
2019-03-25T19:13:03.153Z,6.74
2019-03-25T19:15:32.441Z,6.71
2019-03-25T19:18:01.621Z,6.70
2019-03-25T19:20:30.845Z,6.62
2019-03-25T19:23:00.075Z,6.56
2019-03-25T19:25:29.291Z,6.39
2019-03-25T19:27:58.550Z,6.46
2019-03-25T19:30:27.786Z,6.49
2019-03-25T19:32:57.225Z,6.46
2019-03-25T19:35:26.773Z,6.43
2019-03-25T19:37:56.255Z,6.39
2019-03-25T19:40:25.439Z,6.36
2019-03-25T19:42:54.680Z,6.42
2019-03-25T19:45:23.921Z,6.48
2019-03-25T19:47:53.114Z,6.44
2019-03-25T19:50:22.401Z,6.44
2019-03-25T19:52:51.617Z,6.46
2019-03-25T19:55:20.808Z,6.57
2019-03-25T19:57:50.085Z,6.53
2019-03-25T20:00:26.129Z,6.62
2019-03-25T20:02:55.381Z,6.65
2019-03-25T20:05:24.629Z,6.57
2019-03-25T20:07:53.902Z,6.62
2019-03-25T20:10:30.838Z,6.60
2019-03-25T20:13:00.269Z,6.59
2019-03-25T20:15:32.601Z,6.59
2019-03-25T20:18:01.052Z,6.59
2019-03-25T20:20:30.275Z,6.63
2019-03-25T20:22:59.478Z,6.63
2019-03-25T20:25:28.671Z,6.64
2019-03-25T20:27:58.226Z,6.60
2019-03-25T20:30:27.540Z,6.52
2019-03-25T20:32:56.836Z,6.48
2019-03-25T20:35:26.073Z,6.45
2019-03-25T20:37:55.230Z,6.40
2019-03-25T20:40:24.439Z,6.39
2019-03-25T20:42:53.635Z,6.38
2019-03-25T20:45:22.834Z,6.37
2019-03-25T20:47:52.103Z,6.42
2019-03-25T20:50:21.290Z,6.46
2019-03-25T20:52:50.456Z,6.43
2019-03-25T20:55:19.826Z,6.48
2019-03-25T20:57:49.007Z,6.47
2019-03-25T21:00:24.452Z,6.44
2019-03-25T21:02:53.723Z,6.37
2019-03-25T21:05:22.941Z,6.33
2019-03-25T21:07:52.147Z,6.41
2019-03-25T21:10:21.355Z,6.41
2019-03-25T21:12:50.545Z,6.39
2019-03-25T21:15:19.785Z,6.30
2019-03-25T21:17:48.998Z,6.19
2019-03-25T21:20:18.179Z,6.17
2019-03-25T21:22:47.391Z,6.14
2019-03-25T21:25:16.631Z,6.06
2019-03-25T21:27:45.831Z,6.04
2019-03-25T21:30:15.416Z,6.08
2019-03-25T21:32:57.307Z,6.09
2019-03-25T21:35:15.633Z,6.02
2019-03-25T21:37:44.948Z,6.02
2019-03-25T21:40:14.409Z,6.01
2019-03-25T21:42:43.601Z,5.93
2019-03-25T21:45:12.952Z,5.89
2019-03-25T21:47:42.223Z,5.92
2019-03-25T21:50:11.835Z,6.05
2019-03-25T21:52:41.034Z,6.10
2019-03-25T21:55:10.473Z,6.01
2019-03-25T21:57:39.668Z,6.00
2019-03-25T22:00:09.352Z,5.93
2019-03-25T22:02:38.567Z,5.86
2019-03-25T22:05:07.899Z,5.81
2019-03-25T22:07:37.101Z,5.73
2019-03-25T22:10:07.125Z,5.70
2019-03-25T22:12:36.366Z,5.74
2019-03-25T22:15:09.028Z,5.77
2019-03-25T22:17:38.596Z,5.78
2019-03-25T22:20:09.136Z,5.77
2019-03-25T22:22:38.361Z,5.76
2019-03-25T22:25:08.640Z,5.81
2019-03-25T22:27:38.018Z,5.84
2019-03-25T22:30:08.177Z,5.91
2019-03-25T22:32:37.399Z,5.84
2019-03-25T22:35:07.010Z,5.83
2019-03-25T22:37:36.239Z,5.85
2019-03-25T22:40:06.397Z,5.82
2019-03-25T22:42:36.223Z,5.79
2019-03-25T22:45:06.341Z,5.90
2019-03-25T22:47:35.834Z,5.94
2019-03-25T22:50:07.045Z,5.97
2019-03-25T22:52:36.327Z,5.96
2019-03-25T22:55:06.975Z,5.90
2019-03-25T22:57:36.280Z,5.87
2019-03-25T23:00:07.176Z,5.96
2019-03-25T23:02:36.376Z,6.00
2019-03-25T23:05:06.127Z,5.97
2019-03-25T23:07:35.359Z,5.92
2019-03-25T23:10:05.177Z,5.96
2019-03-25T23:12:34.402Z,5.98
2019-03-25T23:15:03.705Z,5.99
2019-03-25T23:17:32.903Z,5.98
2019-03-25T23:20:02.125Z,5.99
2019-03-25T23:22:31.354Z,5.97
2019-03-25T23:25:00.582Z,5.95
2019-03-25T23:27:29.819Z,5.92
2019-03-25T23:29:59.024Z,5.92
2019-03-25T23:32:28.223Z,5.84
2019-03-25T23:34:57.456Z,5.80
2019-03-25T23:37:26.660Z,5.87
2019-03-25T23:39:55.872Z,5.89
2019-03-25T23:42:25.106Z,5.92
2019-03-25T23:44:54.313Z,5.91
2019-03-25T23:47:23.504Z,5.93
2019-03-25T23:49:52.728Z,5.90
2019-03-25T23:52:22.039Z,5.96
2019-03-25T23:54:51.244Z,5.92
2019-03-25T23:57:20.482Z,5.93
2019-03-25T23:59:49.996Z,5.95
